Time;durP1;ratioP1;P1;durP2;ratioP2;P2;SDS_P1;SDS_P2;PMS_P1;PMS_P2;Temp;Humidity;BMP_temperature;BMP_pressure;BME280_temperature;BME280_humidity;BME280_pressure;Samples;Min_cycle;Max_cycle;Signal;HPM_P1;HPM_P2
2022/09/01 00:01:29;;;;;;;19.70;17.10;;;15.40;99.90;;;;;;5016772;28;20069;-86
2022/09/01 00:04:02;;;;;;;18.52;15.65;;;15.40;99.90;;;;;;5016635;28;20390;-86
2022/09/01 00:06:28;;;;;;;16.30;13.48;;;15.40;99.90;;;;;;5015666;28;20033;-85
2022/09/01 00:08:56;;;;;;;25.67;20.95;;;15.40;99.90;;;;;;5016605;28;20024;-87
2022/09/01 00:11:24;;;;;;;26.30;22.30;;;15.40;99.90;;;;;;5007548;28;20027;-85
2022/09/01 00:13:51;;;;;;;26.00;21.58;;;15.40;99.90;;;;;;4979825;28;20030;-86
2022/09/01 00:16:18;;;;;;;22.58;19.52;;;15.30;99.90;;;;;;4984956;28;20026;-85
2022/09/01 00:18:48;;;;;;;18.40;16.23;;;15.30;99.90;;;;;;5006321;28;20425;-86
2022/09/01 00:21:18;;;;;;;25.15;21.67;;;15.20;99.90;;;;;;5009759;28;20506;-85
2022/09/01 00:23:44;;;;;;;25.13;20.80;;;15.20;99.90;;;;;;5010028;28;20026;-86
2022/09/01 00:26:10;;;;;;;24.15;19.85;;;15.20;99.90;;;;;;5028591;28;20036;-86
2022/09/01 00:28:37;;;;;;;23.73;20.52;;;15.20;99.90;;;;;;5029419;28;20086;-85
2022/09/01 00:31:05;;;;;;;25.20;21.90;;;15.20;99.90;;;;;;5011443;28;20076;-86
2022/09/01 00:33:31;;;;;;;29.45;22.48;;;15.20;99.90;;;;;;5011938;28;20140;-86
2022/09/01 00:35:57;;;;;;;23.90;20.65;;;15.20;99.90;;;;;;5014475;28;20022;-86
2022/09/01 00:38:23;;;;;;;27.13;23.60;;;15.20;99.90;;;;;;5028317;28;20072;-86
2022/09/01 00:40:49;;;;;;;29.38;23.38;;;15.20;99.90;;;;;;5007306;28;20026;-86
2022/09/01 00:43:39;;;;;;;27.40;23.67;;;15.20;99.90;;;;;;5030416;28;20033;-87
2022/09/01 00:46:08;;;;;;;28.40;22.73;;;15.10;99.90;;;;;;5032826;28;20093;-87
2022/09/01 00:48:34;;;;;;;29.27;24.45;;;15.10;99.90;;;;;;5026574;28;20097;-86
2022/09/01 00:51:00;;;;;;;31.60;24.63;;;15.10;99.90;;;;;;5008068;28;20094;-87
2022/09/01 00:53:26;;;;;;;28.17;22.48;;;15.10;99.90;;;;;;5027277;28;20037;-86
2022/09/01 00:55:52;;;;;;;22.20;18.95;;;15.00;99.90;;;;;;5025788;28;20022;-86
2022/09/01 00:58:18;;;;;;;21.55;17.77;;;15.00;99.90;;;;;;5005609;28;20030;-86
2022/09/01 01:00:45;;;;;;;17.90;15.23;;;15.00;99.90;;;;;;5004779;28;20062;-86
2022/09/01 01:03:11;;;;;;;20.67;18.08;;;15.10;99.90;;;;;;5025360;28;20270;-86
2022/09/01 01:05:45;;;;;;;27.70;21.63;;;15.10;99.90;;;;;;5007926;28;20030;-86
2022/09/01 01:08:11;;;;;;;29.65;25.35;;;15.10;99.90;;;;;;5005914;28;20030;-86
2022/09/01 01:10:40;;;;;;;26.90;22.35;;;15.10;99.90;;;;;;5021732;28;20026;-86
2022/09/01 01:13:09;;;;;;;30.92;23.25;;;15.00;99.90;;;;;;5002817;28;20029;-85
2022/09/01 01:15:35;;;;;;;26.42;22.27;;;15.00;99.90;;;;;;5019159;28;20469;-86
2022/09/01 01:18:01;;;;;;;26.58;21.13;;;15.00;99.90;;;;;;5001415;28;20090;-86
2022/09/01 01:23:39;;;;;;;29.17;24.05;;;15.00;99.90;;;;;;5002327;28;20041;-86
2022/09/01 01:26:08;;;;;;;25.98;20.80;;;15.00;99.90;;;;;;5005437;28;20029;-86
2022/09/01 01:28:40;;;;;;;22.08;19.45;;;15.10;99.90;;;;;;4997268;28;20026;-87
2022/09/01 01:31:11;;;;;;;28.08;21.50;;;15.10;99.90;;;;;;5002766;28;20025;-87
2022/09/01 01:33:58;;;;;;;23.75;20.98;;;15.10;99.90;;;;;;4988502;28;20030;-86
2022/09/01 01:36:35;;;;;;;26.98;23.27;;;15.10;99.90;;;;;;4987946;28;20026;-86
2022/09/01 01:39:11;;;;;;;27.85;23.20;;;15.20;99.90;;;;;;4987310;28;20033;-86
2022/09/01 01:41:40;;;;;;;27.45;22.98;;;15.10;99.90;;;;;;4986257;28;20488;-86
2022/09/01 01:44:07;;;;;;;22.45;19.83;;;15.10;99.90;;;;;;4987680;28;20121;-87
2022/09/01 01:46:35;;;;;;;28.05;22.77;;;15.10;99.90;;;;;;4994522;28;20034;-87
2022/09/01 01:49:02;;;;;;;27.60;23.35;;;15.10;99.90;;;;;;4986276;28;20022;-87
2022/09/01 01:51:31;;;;;;;30.00;24.08;;;15.10;99.90;;;;;;5000948;28;20026;-87
2022/09/01 01:54:01;;;;;;;24.88;20.30;;;15.10;99.90;;;;;;5002052;28;20054;-86
2022/09/01 01:56:27;;;;;;;30.75;24.60;;;15.10;99.90;;;;;;5007554;28;20022;-86
2022/09/01 01:59:19;;;;;;;24.17;20.88;;;15.10;99.90;;;;;;4995985;28;20030;-86
2022/09/01 02:01:49;;;;;;;26.83;22.90;;;15.10;99.90;;;;;;4996851;28;20086;-86
2022/09/01 02:04:18;;;;;;;21.73;19.33;;;15.10;99.90;;;;;;4993642;28;20030;-87
2022/09/01 02:06:46;;;;;;;22.38;19.90;;;15.00;99.90;;;;;;5008511;28;20073;-87
2022/09/01 02:09:13;;;;;;;22.83;19.48;;;15.00;99.90;;;;;;4990986;28;20026;-86
2022/09/01 02:11:39;;;;;;;22.10;18.55;;;15.00;99.90;;;;;;4988246;28;20081;-86
2022/09/01 02:14:06;;;;;;;25.00;22.30;;;14.90;99.90;;;;;;4988770;28;20026;-86
2022/09/01 02:16:33;;;;;;;23.10;18.80;;;14.90;99.90;;;;;;5019591;28;20106;-85
2022/09/01 02:19:00;;;;;;;23.85;20.45;;;14.90;99.90;;;;;;5004349;28;20087;-86
2022/09/01 02:21:27;;;;;;;23.15;20.52;;;14.80;99.90;;;;;;5003320;28;20037;-86
2022/09/01 02:23:59;;;;;;;22.80;20.10;;;14.80;99.90;;;;;;5003120;28;20036;-86
2022/09/01 02:26:41;;;;;;;24.38;20.17;;;14.80;99.90;;;;;;5013851;28;20022;-86
2022/09/01 02:29:16;;;;;;;28.75;21.52;;;14.80;99.90;;;;;;5002738;28;20505;-87
2022/09/01 02:31:43;;;;;;;24.55;20.45;;;14.70;99.90;;;;;;5021238;28;20388;-86
2022/09/01 02:34:12;;;;;;;27.00;21.15;;;14.70;99.90;;;;;;5020628;28;20046;-86
2022/09/01 02:36:43;;;;;;;21.38;18.05;;;14.60;99.90;;;;;;5026169;28;20029;-87
2022/09/01 02:39:09;;;;;;;18.35;16.30;;;14.60;99.90;;;;;;5002886;28;20108;-86
2022/09/01 02:41:35;;;;;;;25.10;19.95;;;14.60;99.90;;;;;;5018417;28;20079;-86
2022/09/01 02:44:10;;;;;;;27.50;22.77;;;14.50;99.90;;;;;;5001006;28;20472;-86
2022/09/01 02:46:43;;;;;;;31.45;24.10;;;14.50;99.90;;;;;;5012970;28;20057;-86
2022/09/01 02:49:14;;;;;;;25.67;21.30;;;14.40;99.90;;;;;;5008627;28;20022;-85
2022/09/01 02:51:46;;;;;;;28.17;23.83;;;14.40;99.90;;;;;;5001050;28;20030;-85
2022/09/01 02:54:16;;;;;;;26.08;22.33;;;14.30;99.90;;;;;;5000153;28;20034;-85
2022/09/01 02:56:46;;;;;;;22.67;19.35;;;14.30;99.90;;;;;;5019273;28;20368;-86
2022/09/01 02:59:14;;;;;;;26.52;22.05;;;14.20;99.90;;;;;;5019486;28;20115;-85
2022/09/01 03:01:41;;;;;;;22.85;19.13;;;14.20;99.90;;;;;;5002418;28;20026;-85
2022/09/01 03:04:10;;;;;;;22.25;19.17;;;14.20;99.90;;;;;;5020468;28;20053;-86
2022/09/01 03:06:37;;;;;;;23.52;19.10;;;14.20;99.90;;;;;;5001946;28;20458;-86
2022/09/01 03:09:13;;;;;;;20.90;17.90;;;14.10;99.90;;;;;;5002103;28;20053;-85
2022/09/01 03:11:41;;;;;;;18.25;15.50;;;14.10;99.90;;;;;;5020555;28;20033;-85
2022/09/01 03:14:07;;;;;;;22.10;18.52;;;14.10;99.90;;;;;;5024920;28;20037;-86
2022/09/01 03:16:34;;;;;;;26.38;20.65;;;14.10;99.90;;;;;;5010729;28;20019;-86
2022/09/01 03:19:02;;;;;;;26.40;20.88;;;14.10;99.90;;;;;;5001139;28;20034;-86
2022/09/01 03:21:30;;;;;;;22.48;19.05;;;14.10;99.90;;;;;;5000566;28;20089;-87
2022/09/01 03:23:57;;;;;;;20.50;17.45;;;14.10;99.90;;;;;;5000864;28;20052;-86
2022/09/01 03:26:23;;;;;;;29.65;21.77;;;14.10;99.90;;;;;;5000181;28;20026;-86
2022/09/01 03:28:51;;;;;;;26.33;21.20;;;14.10;99.90;;;;;;5000853;28;20069;-87
2022/09/01 03:31:18;;;;;;;26.95;22.27;;;14.20;99.90;;;;;;5000885;28;20082;-86
2022/09/01 03:33:44;;;;;;;23.33;18.83;;;14.10;99.90;;;;;;4998131;28;20030;-86
2022/09/01 03:36:18;;;;;;;27.50;22.88;;;14.20;99.90;;;;;;4985274;28;20034;-86
2022/09/01 03:38:54;;;;;;;22.90;19.45;;;14.20;99.90;;;;;;5002670;28;20023;-85
2022/09/01 03:41:24;;;;;;;20.10;17.48;;;14.20;99.90;;;;;;4985342;28;20026;-85
2022/09/01 03:43:55;;;;;;;21.55;17.17;;;14.20;99.90;;;;;;4985143;28;20126;-85
2022/09/01 03:46:21;;;;;;;20.60;18.33;;;14.20;99.90;;;;;;5003702;28;20053;-85
2022/09/01 03:48:53;;;;;;;18.25;16.33;;;14.20;99.90;;;;;;5003963;28;20022;-85
2022/09/01 03:51:21;;;;;;;17.95;15.68;;;14.20;99.90;;;;;;5003485;28;20152;-85
2022/09/01 03:53:48;;;;;;;18.02;14.88;;;14.30;99.90;;;;;;5021429;28;20044;-85
2022/09/01 03:56:15;;;;;;;17.02;15.32;;;14.40;99.90;;;;;;5004107;28;20033;-86
2022/09/01 03:58:45;;;;;;;15.18;13.45;;;14.40;99.90;;;;;;5020088;28;20092;-86
2022/09/01 04:01:12;;;;;;;15.45;13.40;;;14.40;99.90;;;;;;5020362;28;20061;-86
2022/09/01 04:03:39;;;;;;;17.38;15.45;;;14.40;99.90;;;;;;5004064;28;20037;-85
2022/09/01 04:06:08;;;;;;;19.25;15.43;;;14.40;99.90;;;;;;5020137;28;20033;-86
2022/09/01 04:08:34;;;;;;;15.73;14.05;;;14.40;99.90;;;;;;5002421;28;20142;-86
2022/09/01 04:11:04;;;;;;;16.45;14.38;;;14.40;99.90;;;;;;5002414;28;20026;-86
2022/09/01 04:13:35;;;;;;;14.18;12.68;;;14.40;99.90;;;;;;5009629;28;20032;-87
2022/09/01 04:16:01;;;;;;;15.93;13.48;;;14.40;99.90;;;;;;5013624;28;20027;-87
2022/09/01 04:18:29;;;;;;;17.58;14.70;;;14.30;99.90;;;;;;5019568;28;20034;-86
2022/09/01 04:20:57;;;;;;;21.70;16.48;;;14.30;99.90;;;;;;5003312;28;20041;-86
2022/09/01 04:23:28;;;;;;;17.90;16.00;;;14.20;99.90;;;;;;5021078;28;20018;-85
2022/09/01 04:26:11;;;;;;;23.90;21.13;;;14.20;99.90;;;;;;5034685;28;20022;-86
2022/09/01 04:28:40;;;;;;;26.67;22.58;;;14.10;99.90;;;;;;5016886;28;20459;-86
2022/09/01 04:31:09;;;;;;;24.23;19.65;;;14.10;99.90;;;;;;5025380;28;20026;-86
2022/09/01 04:33:38;;;;;;;22.67;18.35;;;14.00;99.90;;;;;;5009458;28;20109;-86
2022/09/01 04:36:05;;;;;;;23.58;19.15;;;13.90;99.90;;;;;;5034781;28;20009;-89
2022/09/01 04:38:36;;;;;;;24.42;20.52;;;14.00;99.90;;;;;;5014853;28;20034;-84
2022/09/01 04:41:06;;;;;;;25.98;20.95;;;13.90;99.90;;;;;;5024791;28;20356;-86
2022/09/01 04:43:33;;;;;;;26.08;20.23;;;13.90;99.90;;;;;;5027077;28;20080;-87
2022/09/01 04:46:02;;;;;;;29.10;22.95;;;13.90;99.90;;;;;;5093102;22;20033;-86
2022/09/01 04:48:34;;;;;;;30.58;24.27;;;13.90;99.90;;;;;;5059082;28;20124;-87
2022/09/01 04:54:59;;;;;;;21.30;16.75;;;14.00;99.90;;;;;;5073647;28;20154;-87
2022/09/01 04:57:55;;;;;;;24.15;18.73;;;14.00;99.90;;;;;;5049215;28;20075;-87
2022/09/01 05:00:50;;;;;;;21.27;17.92;;;14.10;99.90;;;;;;5059575;28;20018;-87
2022/09/01 05:03:23;;;;;;;27.30;23.00;;;14.10;99.90;;;;;;5043208;28;20101;-85
2022/09/01 05:06:08;;;;;;;24.42;21.05;;;14.20;99.90;;;;;;5043218;28;20040;-85
2022/09/01 05:09:04;;;;;;;26.25;21.08;;;14.30;99.90;;;;;;5024324;28;20026;-86
2022/09/01 05:12:09;;;;;;;25.17;20.95;;;14.30;99.90;;;;;;5022749;28;20045;-89
2022/09/01 05:14:55;;;;;;;24.80;21.63;;;14.40;99.90;;;;;;5038885;28;20034;-89
2022/09/01 05:18:24;;;;;;;21.25;18.95;;;14.50;99.90;;;;;;5038894;28;20081;-89
2022/09/01 05:21:32;;;;;;;22.02;18.85;;;14.50;99.90;;;;;;5026776;28;20087;-87
2022/09/01 05:24:38;;;;;;;22.17;19.80;;;14.50;99.90;;;;;;5003332;28;20050;-88
2022/09/01 05:27:32;;;;;;;24.80;19.80;;;14.50;99.90;;;;;;5025727;28;20015;-88
2022/09/01 05:30:30;;;;;;;24.83;21.33;;;14.50;99.90;;;;;;5030249;28;20045;-86
2022/09/01 05:33:20;;;;;;;22.48;17.75;;;14.50;99.90;;;;;;5019809;28;20026;-85
2022/09/01 05:36:00;;;;;;;23.85;20.40;;;14.50;99.90;;;;;;5023961;28;20085;-83
2022/09/01 05:39:24;;;;;;;20.67;18.13;;;14.50;99.90;;;;;;4924304;29;20029;-88
2022/09/01 05:42:22;;;;;;;22.75;18.50;;;14.50;99.90;;;;;;4926592;29;20043;-88
2022/09/01 05:45:10;;;;;;;18.65;15.98;;;14.60;99.90;;;;;;4914025;29;20040;-89
2022/09/01 05:47:38;;;;;;;13.35;12.05;;;14.80;99.90;;;;;;4984996;28;20038;-89
2022/09/01 05:50:09;;;;;;;14.35;12.57;;;15.00;99.90;;;;;;5027891;28;20025;-88
2022/09/01 05:54:06;;;;;;;15.48;13.10;;;15.20;99.90;;;;;;4997692;28;20038;-88
2022/09/01 05:57:25;;;;;;;16.75;14.55;;;15.30;99.90;;;;;;4948262;28;20038;-89
2022/09/01 06:04:34;;;;;;;17.58;12.73;;;15.60;99.90;;;;;;4941168;29;20086;-88
2022/09/01 06:11:12;;;;;;;15.27;12.65;;;16.10;99.90;;;;;;4745685;30;20162;-89
2022/09/01 06:13:40;;;;;;;14.93;12.93;;;16.30;99.90;;;;;;4827260;28;20033;-87
2022/09/01 06:16:15;;;;;;;15.55;12.75;;;16.60;99.90;;;;;;5002118;28;20040;-89
2022/09/01 06:18:58;;;;;;;14.50;11.95;;;16.80;99.90;;;;;;5049126;28;20460;-89
2022/09/01 06:21:25;;;;;;;16.58;12.90;;;16.80;99.90;;;;;;5023130;28;20034;-89
2022/09/01 06:23:54;;;;;;;13.35;11.98;;;16.70;99.90;;;;;;5023462;28;20084;-89
2022/09/01 06:26:31;;;;;;;14.52;11.95;;;16.60;99.90;;;;;;5023247;28;20030;-89
2022/09/01 06:29:00;;;;;;;16.70;13.55;;;16.80;99.90;;;;;;5041289;28;20424;-87
2022/09/01 06:31:46;;;;;;;14.20;12.70;;;16.80;99.70;;;;;;5023987;28;20401;-88
2022/09/01 06:34:16;;;;;;;14.90;12.88;;;16.80;99.40;;;;;;5042725;28;20022;-89
2022/09/01 06:36:42;;;;;;;13.05;11.52;;;16.90;99.30;;;;;;5023955;28;20044;-88
2022/09/01 06:39:13;;;;;;;15.02;11.65;;;16.90;98.50;;;;;;5024031;28;20028;-87
2022/09/01 06:41:46;;;;;;;15.45;13.13;;;17.00;98.70;;;;;;5025564;28;20460;-89
2022/09/01 06:44:13;;;;;;;17.20;13.90;;;16.90;98.50;;;;;;5040153;28;20040;-90
2022/09/01 06:46:40;;;;;;;14.98;13.20;;;16.90;98.50;;;;;;5023061;28;20045;-89
2022/09/01 06:49:11;;;;;;;14.63;11.85;;;16.90;98.50;;;;;;5023204;28;20021;-88
2022/09/01 06:51:44;;;;;;;;;;;16.80;99.10;;;;;;5040687;28;20036;-88
2022/09/01 06:54:15;;;;;;;14.40;12.30;;;16.90;99.60;;;;;;5024227;28;19913;-88
2022/09/01 06:56:54;;;;;;;12.32;10.48;;;17.00;98.90;;;;;;5022446;28;20516;-89
2022/09/01 07:00:09;;;;;;;12.35;10.93;;;17.10;98.90;;;;;;5025536;28;20034;-90
2022/09/01 07:02:41;;;;;;;12.63;11.35;;;17.20;98.80;;;;;;5008405;28;20041;-89
2022/09/01 07:05:07;;;;;;;12.68;11.40;;;17.20;98.50;;;;;;5037045;28;20049;-86
2022/09/01 07:07:34;;;;;;;15.25;13.07;;;17.20;98.50;;;;;;5033765;28;20444;-88
2022/09/01 07:10:02;;;;;;;13.30;11.73;;;17.10;97.60;;;;;;5025490;28;20030;-89
2022/09/01 07:12:30;;;;;;;11.90;10.70;;;17.10;97.90;;;;;;5028104;28;20083;-88
2022/09/01 07:15:00;;;;;;;11.18;9.98;;;17.20;98.20;;;;;;5025311;28;20060;-90
2022/09/01 07:17:27;;;;;;;10.90;9.38;;;17.30;98.30;;;;;;5042858;28;20502;-88
2022/09/01 07:19:53;;;;;;;10.20;9.18;;;17.60;97.90;;;;;;5024416;28;20021;-89
2022/09/01 07:22:18;;;;;;;8.90;8.00;;;17.70;95.90;;;;;;5041496;28;20066;-88
2022/09/01 07:24:45;;;;;;;9.45;7.93;;;17.50;95.30;;;;;;5023409;28;20041;-88
2022/09/01 07:27:11;;;;;;;7.50;6.32;;;17.40;96.10;;;;;;5023688;28;20006;-88
2022/09/01 07:29:38;;;;;;;8.82;7.88;;;17.30;96.10;;;;;;5023864;28;20057;-88
2022/09/01 07:32:04;;;;;;;8.05;7.18;;;17.40;95.60;;;;;;5023114;28;20101;-88
2022/09/01 07:34:31;;;;;;;6.93;6.32;;;17.40;95.80;;;;;;5023354;28;20076;-88
2022/09/01 07:36:58;;;;;;;7.38;6.68;;;17.50;95.80;;;;;;5023430;28;20117;-88
2022/09/01 07:39:24;;;;;;;7.38;6.57;;;17.50;95.30;;;;;;5022795;28;20213;-88
2022/09/01 07:41:51;;;;;;;6.63;6.03;;;17.50;95.40;;;;;;5024805;28;20080;-88
2022/09/01 07:44:16;;;;;;;7.28;6.57;;;17.50;95.10;;;;;;5022083;28;20033;-89
2022/09/01 07:46:54;;;;;;;7.72;7.03;;;17.60;94.50;;;;;;5022507;28;20128;-87
2022/09/01 07:49:28;;;;;;;8.13;6.45;;;17.50;94.00;;;;;;5022206;28;20034;-88
2022/09/01 07:52:02;;;;;;;6.72;6.03;;;17.50;94.90;;;;;;5022142;28;20067;-89
2022/09/01 07:54:32;;;;;;;6.75;6.05;;;17.70;94.90;;;;;;5024222;28;20057;-88
2022/09/01 08:00:16;;;;;;;7.60;6.90;;;17.80;93.90;;;;;;5039322;28;20022;-89
2022/09/01 08:02:45;;;;;;;6.55;5.55;;;17.80;93.90;;;;;;5037815;28;20033;-89
2022/09/01 08:05:16;;;;;;;6.95;6.25;;;17.70;94.50;;;;;;5020668;28;20021;-88
2022/09/01 08:07:46;;;;;;;7.30;6.45;;;17.90;94.20;;;;;;5023112;28;20009;-89
2022/09/01 08:10:12;;;;;;;5.68;5.18;;;18.00;93.70;;;;;;5021547;28;20036;-88
2022/09/01 08:12:38;;;;;;;7.03;5.10;;;18.10;93.40;;;;;;5020866;28;20064;-89
2022/09/01 08:15:07;;;;;;;5.40;4.25;;;18.20;93.20;;;;;;5021614;28;20483;-88
2022/09/01 08:17:39;;;;;;;4.43;4.03;;;18.50;92.90;;;;;;5023353;28;20033;-88
2022/09/01 08:20:08;;;;;;;6.05;4.93;;;18.70;92.20;;;;;;5021826;28;20033;-88
2022/09/01 08:22:36;;;;;;;5.50;4.90;;;18.90;91.40;;;;;;5021249;28;20127;-88
2022/09/01 08:25:07;;;;;;;5.28;4.78;;;19.00;91.20;;;;;;5020703;28;20104;-88
2022/09/01 08:27:44;;;;;;;;;;;19.20;90.80;;;;;;5039045;28;20052;-88
2022/09/01 08:30:26;;;;;;;5.93;4.57;;;19.20;89.70;;;;;;5043672;28;20385;-89
2022/09/01 08:32:59;;;;;;;;;;;19.30;90.10;;;;;;5039711;28;20088;-88
2022/09/01 08:35:28;;;;;;;6.07;5.40;;;19.60;89.30;;;;;;5022633;28;19916;-89
2022/09/01 08:37:54;;;;;;;6.88;5.78;;;19.60;85.60;;;;;;5022409;28;20093;-88
2022/09/01 08:40:22;;;;;;;5.72;5.22;;;19.20;86.20;;;;;;5041789;28;20068;-88
2022/09/01 08:43:12;;;;;;;8.73;6.68;;;19.00;88.70;;;;;;5027342;28;20102;-88
2022/09/01 08:45:52;;;;;;;6.15;5.55;;;18.90;88.40;;;;;;5022405;28;20384;-89
2022/09/01 08:49:01;;;;;;;5.20;4.70;;;18.90;89.70;;;;;;5025235;28;20179;-89
2022/09/01 08:52:03;;;;;;;6.00;5.50;;;19.10;89.90;;;;;;4946695;28;20041;-87
2022/09/01 08:54:32;;;;;;;6.97;6.28;;;19.20;87.60;;;;;;4986995;28;20092;-88
2022/09/01 08:57:10;;;;;;;6.82;6.13;;;19.10;85.80;;;;;;5030654;28;20041;-88
2022/09/01 08:59:42;;;;;;;4.72;4.32;;;19.10;85.00;;;;;;5026809;28;20070;-89
2022/09/01 09:02:57;;;;;;;5.30;4.82;;;19.10;87.20;;;;;;5031386;28;20018;-86
2022/09/01 09:05:32;;;;;;;5.05;4.57;;;19.40;86.40;;;;;;5009091;28;20388;-89
2022/09/01 09:08:26;;;;;;;5.78;5.10;;;19.70;84.90;;;;;;5020867;28;20025;-89
2022/09/01 09:11:27;;;;;;;6.18;5.68;;;19.70;83.40;;;;;;5021587;28;20036;-89
2022/09/01 09:14:17;;;;;;;7.00;6.15;;;19.70;82.00;;;;;;4997948;28;20034;-89
2022/09/01 09:16:53;;;;;;;6.18;5.30;;;19.70;82.10;;;;;;4996213;28;20046;-89
2022/09/01 09:19:32;;;;;;;5.88;5.25;;;19.90;82.80;;;;;;4980986;28;20029;-89
2022/09/01 09:22:26;;;;;;;6.82;5.85;;;20.00;82.10;;;;;;4983131;28;20026;-89
2022/09/01 09:25:28;;;;;;;8.15;5.38;;;20.30;80.90;;;;;;4997190;28;20058;-89
2022/09/01 09:27:54;;;;;;;5.82;5.22;;;20.60;79.00;;;;;;4987512;28;20145;-87
2022/09/01 09:30:36;;;;;;;6.10;5.10;;;20.60;77.20;;;;;;5027684;28;20029;-88
2022/09/01 09:33:30;;;;;;;;;;;20.50;77.10;;;;;;5033610;28;20025;-89
2022/09/01 09:36:48;;;;;;;6.70;6.07;;;20.60;76.30;;;;;;5024057;28;19909;-90
2022/09/01 09:39:33;;;;;;;7.40;6.60;;;20.40;75.30;;;;;;5022886;28;20030;-87
2022/09/01 09:42:38;;;;;;;7.30;6.40;;;19.70;77.40;;;;;;5021598;28;20017;-89
2022/09/01 09:45:25;;;;;;;9.05;7.95;;;19.40;80.60;;;;;;5022607;28;20077;-89
2022/09/01 09:48:08;;;;;;;8.40;7.50;;;19.40;81.70;;;;;;5023759;28;20500;-89
2022/09/01 09:50:44;;;;;;;7.22;6.53;;;19.60;81.50;;;;;;5028954;28;20022;-88
2022/09/01 09:53:37;;;;;;;7.68;6.13;;;19.90;81.20;;;;;;5031540;28;20034;-89
2022/09/01 09:56:16;;;;;;;7.78;6.40;;;20.30;80.50;;;;;;5044423;28;20102;-88
2022/09/01 09:58:52;;;;;;;8.45;6.60;;;20.50;78.40;;;;;;5027324;28;20089;-89
2022/09/01 10:01:24;;;;;;;6.38;5.70;;;20.50;74.80;;;;;;5045802;28;20022;-89
2022/09/01 10:04:38;;;;;;;6.47;5.88;;;20.50;74.80;;;;;;5037143;28;20099;-89
2022/09/01 10:07:37;;;;;;;5.40;4.90;;;20.70;74.70;;;;;;5018466;28;20025;-89
2022/09/01 10:10:40;;;;;;;7.97;4.80;;;21.10;74.10;;;;;;4981461;28;20061;-89
2022/09/01 10:13:20;;;;;;;5.00;4.13;;;21.60;71.60;;;;;;5020952;28;20045;-90
2022/09/01 10:15:53;;;;;;;5.50;3.63;;;21.60;68.60;;;;;;5024657;28;20032;-89
2022/09/01 10:18:21;;;;;;;5.10;3.95;;;21.90;68.60;;;;;;5025981;28;20472;-89
2022/09/01 10:21:03;;;;;;;6.07;5.47;;;22.00;66.60;;;;;;5024554;28;20025;-89
2022/09/01 10:23:37;;;;;;;6.63;5.65;;;22.10;66.00;;;;;;5023896;28;20029;-90
2022/09/01 10:26:12;;;;;;;6.05;5.22;;;22.00;66.80;;;;;;5022317;28;20049;-89
2022/09/01 10:28:48;;;;;;;6.80;4.97;;;21.80;68.10;;;;;;5023610;28;20455;-90
2022/09/01 10:31:14;;;;;;;8.48;4.10;;;21.70;67.70;;;;;;5023185;28;20173;-89
2022/09/01 10:33:40;;;;;;;4.65;4.25;;;21.30;68.00;;;;;;5025014;28;20022;-87
2022/09/01 10:36:07;;;;;;;4.70;4.25;;;20.90;69.80;;;;;;5023064;28;20506;-88
2022/09/01 10:38:33;;;;;;;3.78;3.42;;;20.90;68.90;;;;;;5042737;28;20032;-88
2022/09/01 10:41:09;;;;;;;3.80;3.47;;;21.00;69.90;;;;;;5035487;28;20036;-88
2022/09/01 10:43:40;;;;;;;3.60;2.90;;;21.50;69.10;;;;;;5037229;28;20029;-88
2022/09/01 10:46:19;;;;;;;3.20;2.92;;;21.90;65.70;;;;;;5037832;23;20047;-86
2022/09/01 10:48:49;;;;;;;3.20;2.72;;;21.90;65.90;;;;;;5012986;28;20033;-86
2022/09/01 10:51:15;;;;;;;3.15;2.60;;;21.90;65.70;;;;;;5005533;28;20102;-86
2022/09/01 10:53:46;;;;;;;3.65;2.83;;;21.60;66.20;;;;;;5003120;28;20045;-86
2022/09/01 10:56:19;;;;;;;2.97;2.58;;;21.60;65.60;;;;;;5001186;28;20819;-86
2022/09/01 10:59:23;;;;;;;2.42;2.22;;;21.60;65.40;;;;;;4990553;28;20027;-85
2022/09/01 11:01:48;;;;;;;3.78;2.60;;;21.80;64.80;;;;;;5001631;28;20026;-86
2022/09/01 11:04:38;;;;;;;2.58;2.38;;;22.00;65.30;;;;;;5001563;28;20490;-85
2022/09/01 11:07:22;;;;;;;3.50;2.30;;;22.20;63.60;;;;;;5001418;28;20018;-86
2022/09/01 11:10:23;;;;;;;2.78;2.33;;;22.20;64.00;;;;;;4999941;28;20029;-85
2022/09/01 11:13:07;;;;;;;3.45;2.30;;;21.90;64.50;;;;;;4988616;28;20512;-86
2022/09/01 11:15:41;;;;;;;3.15;1.98;;;21.80;64.50;;;;;;5007321;28;20030;-86
2022/09/01 11:18:22;;;;;;;2.15;2.05;;;21.90;64.20;;;;;;5016544;28;20026;-87
2022/09/01 11:20:47;;;;;;;3.35;2.10;;;22.10;63.50;;;;;;5004767;28;20089;-86
2022/09/01 11:23:26;;;;;;;5.03;2.28;;;22.30;63.50;;;;;;4997379;28;20026;-85
2022/09/01 11:25:58;;;;;;;5.78;2.45;;;22.60;62.40;;;;;;5000097;28;20030;-87
2022/09/01 11:28:26;;;;;;;2.00;1.90;;;22.70;60.90;;;;;;4989353;28;20029;-86
2022/09/01 11:31:09;;;;;;;2.53;1.45;;;23.00;60.60;;;;;;4979062;28;20019;-86
2022/09/01 11:34:03;;;;;;;2.88;1.63;;;23.10;59.90;;;;;;4977242;28;20031;-87
2022/09/01 11:36:46;;;;;;;2.35;1.60;;;23.10;59.20;;;;;;4981373;28;20037;-87
2022/09/01 11:39:25;;;;;;;1.92;1.38;;;23.40;58.70;;;;;;4990113;28;20041;-86
2022/09/01 11:42:04;;;;;;;1.63;1.40;;;23.70;58.00;;;;;;4980978;28;20054;-85
2022/09/01 11:44:52;;;;;;;1.20;1.10;;;24.20;57.10;;;;;;4980795;28;20054;-85
2022/09/01 11:47:31;;;;;;;5.22;2.15;;;24.50;56.50;;;;;;4977072;28;20474;-85
2022/09/01 11:50:05;;;;;;;5.65;1.95;;;24.60;55.80;;;;;;4977704;28;20034;-86
2022/09/01 11:52:34;;;;;;;1.95;1.80;;;24.10;56.00;;;;;;4978354;28;20031;-86
2022/09/01 11:55:02;;;;;;;2.20;1.45;;;23.30;56.70;;;;;;4978851;28;20153;-85
2022/09/01 11:57:36;;;;;;;1.65;1.55;;;22.60;58.20;;;;;;4982923;28;20023;-85
2022/09/01 12:00:10;;;;;;;2.33;1.88;;;22.50;60.00;;;;;;4983768;28;20139;-85
2022/09/01 12:02:44;;;;;;;1.60;1.40;;;22.60;58.90;;;;;;4997798;28;20394;-86
2022/09/01 12:05:25;;;;;;;2.40;1.55;;;22.60;58.70;;;;;;4982922;28;20034;-86
2022/09/01 12:07:51;;;;;;;3.92;1.50;;;22.90;59.20;;;;;;4994444;28;20078;-86
2022/09/01 12:10:29;;;;;;;3.47;2.25;;;23.30;57.50;;;;;;4995722;28;20058;-86
2022/09/01 12:13:08;;;;;;;1.38;1.10;;;23.30;57.10;;;;;;4981528;28;20053;-85
2022/09/01 12:15:37;;;;;;;2.03;1.50;;;23.40;57.00;;;;;;4981575;28;20474;-86
2022/09/01 12:18:11;;;;;;;4.18;1.60;;;23.60;55.20;;;;;;4978053;28;20035;-85
2022/09/01 12:20:37;;;;;;;1.95;1.30;;;23.70;54.50;;;;;;4978397;28;20061;-85
2022/09/01 12:23:27;;;;;;;2.70;1.20;;;23.60;55.80;;;;;;4995114;28;20034;-85
2022/09/01 12:26:08;;;;;;;2.70;1.55;;;24.10;55.40;;;;;;4980738;28;20023;-86
2022/09/01 12:28:38;;;;;;;4.13;1.85;;;24.10;54.60;;;;;;5010719;28;20135;-84
2022/09/01 12:31:06;;;;;;;2.80;1.50;;;23.90;55.40;;;;;;5000203;28;20113;-85
2022/09/01 12:33:33;;;;;;;2.72;1.80;;;23.70;56.00;;;;;;4999244;28;20031;-86
2022/09/01 12:36:28;;;;;;;2.50;2.30;;;23.30;57.60;;;;;;4997909;28;20037;-87
2022/09/01 12:39:15;;;;;;;4.30;2.10;;;22.80;58.30;;;;;;4998871;28;20360;-85
2022/09/01 12:41:41;;;;;;;5.30;2.05;;;22.30;60.30;;;;;;4994752;28;20066;-86
2022/09/01 12:44:49;;;;;;;2.72;1.70;;;22.20;61.60;;;;;;4996717;28;20026;-85
2022/09/01 12:47:33;;;;;;;3.30;1.50;;;22.40;61.80;;;;;;4976931;28;20041;-85
2022/09/01 12:50:04;;;;;;;2.25;1.52;;;22.70;60.20;;;;;;4976065;28;20498;-85
2022/09/01 12:52:35;;;;;;;1.20;1.10;;;22.80;59.20;;;;;;4983584;28;20041;-86
2022/09/01 12:55:02;;;;;;;2.60;1.45;;;22.90;57.90;;;;;;4997075;28;20058;-86
2022/09/01 12:57:30;;;;;;;1.65;1.55;;;22.80;57.80;;;;;;4989353;28;20031;-87
2022/09/01 13:00:14;;;;;;;3.28;1.60;;;22.70;58.50;;;;;;4997470;28;20210;-85
2022/09/01 13:02:43;;;;;;;1.48;1.38;;;22.90;58.10;;;;;;5000984;28;20068;-85
2022/09/01 13:05:23;;;;;;;4.10;1.80;;;23.20;58.00;;;;;;4997306;28;20146;-86
2022/09/01 13:07:53;;;;;;;2.50;1.73;;;23.50;57.30;;;;;;5015083;28;20037;-86
2022/09/01 13:10:20;;;;;;;3.83;1.95;;;23.60;57.30;;;;;;5002498;28;20014;-84
2022/09/01 13:12:46;;;;;;;6.38;1.85;;;23.50;57.80;;;;;;4995889;28;20121;-87
2022/09/01 13:15:13;;;;;;;2.55;1.42;;;23.40;58.40;;;;;;5004662;28;20050;-84
2022/09/01 13:17:38;;;;;;;2.28;1.85;;;23.20;58.90;;;;;;4997604;28;20033;-85
2022/09/01 13:20:08;;;;;;;1.65;1.55;;;23.10;58.90;;;;;;4997279;28;20034;-85
2022/09/01 13:22:34;;;;;;;3.35;1.83;;;23.20;58.10;;;;;;5000109;28;20023;-86
2022/09/01 13:25:00;;;;;;;1.40;1.30;;;23.00;58.20;;;;;;5004533;28;20030;-85
2022/09/01 13:27:26;;;;;;;2.58;1.58;;;23.00;58.60;;;;;;5006231;28;20090;-87
2022/09/01 13:29:53;;;;;;;2.00;1.25;;;22.90;58.50;;;;;;4998685;28;20026;-86
2022/09/01 13:32:19;;;;;;;1.40;1.30;;;22.80;58.70;;;;;;5010763;28;20022;-86
2022/09/01 13:34:46;;;;;;;4.22;1.80;;;23.00;58.80;;;;;;5015730;28;20082;-87
2022/09/01 13:37:11;;;;;;;3.80;1.77;;;23.10;57.30;;;;;;5013885;28;20026;-84